Time;durP1;ratioP1;P1;durP2;ratioP2;P2;SDS_P1;SDS_P2;PMS_P1;PMS_P2;Temp;Humidity;BMP_temperature;BMP_pressure;BME280_temperature;BME280_humidity;BME280_pressure;Samples;Min_cycle;Max_cycle;Signal;HPM_P1;HPM_P2
2022/06/23 00:01:27;;;;;;;23.15;20.67;;;;;;;20.30;100.00;98283.16;5062608;27;103119;-71
2022/06/23 00:03:57;;;;;;;22.05;18.95;;;;;;;20.36;100.00;98285.94;5069464;27;103178;-72
2022/06/23 00:06:36;;;;;;;25.10;20.63;;;;;;;20.39;100.00;98282.91;5044171;27;103921;-72
2022/06/23 00:09:29;;;;;;;26.20;20.87;;;;;;;20.45;100.00;98286.69;5063430;27;103295;-72
2022/06/23 00:11:58;;;;;;;17.67;15.95;;;;;;;20.71;100.00;98289.78;5066764;27;103134;-73
2022/06/23 00:14:28;;;;;;;25.63;20.77;;;;;;;20.49;100.00;98283.47;5058755;27;102878;-73
2022/06/23 00:16:56;;;;;;;24.33;20.83;;;;;;;20.59;100.00;98285.88;5062357;27;103143;-72
2022/06/23 00:19:24;;;;;;;25.35;21.40;;;;;;;20.41;100.00;98280.84;5057269;27;103871;-73
2022/06/23 00:21:54;;;;;;;21.27;19.08;;;;;;;20.43;100.00;98284.22;5060250;27;103251;-72
2022/06/23 00:24:25;;;;;;;14.35;13.05;;;;;;;20.83;100.00;98280.25;5061870;27;102831;-72
2022/06/23 00:26:55;;;;;;;19.83;17.13;;;;;;;20.70;100.00;98275.53;5039639;27;102973;-73
2022/06/23 00:29:24;;;;;;;19.10;17.02;;;;;;;20.61;100.00;98286.53;5053069;27;103086;-73
2022/06/23 00:31:59;;;;;;;19.92;17.88;;;;;;;20.57;100.00;98286.09;5043495;27;103351;-72
2022/06/23 00:34:32;;;;;;;18.53;16.57;;;;;;;20.52;100.00;98280.41;5047560;27;102798;-73
2022/06/23 00:37:04;;;;;;;20.95;17.40;;;;;;;20.57;100.00;98286.09;5061796;27;103114;-72
2022/06/23 00:39:36;;;;;;;12.27;11.03;;;;;;;21.04;100.00;98280.34;5074113;27;103558;-72
2022/06/23 00:42:07;;;;;;;12.48;11.27;;;;;;;21.24;100.00;98278.78;5065856;27;103142;-72
2022/06/23 00:44:41;;;;;;;13.65;11.90;;;;;;;21.32;100.00;98270.59;5066292;27;102667;-73
2022/06/23 00:47:19;;;;;;;10.63;9.63;;;;;;;21.41;100.00;98281.22;5061258;27;103952;-72
2022/06/23 00:49:53;;;;;;;7.83;7.13;;;;;;;21.47;99.32;98283.16;5067882;27;103790;-72
2022/06/23 00:52:29;;;;;;;8.43;7.63;;;;;;;21.51;97.87;98282.59;5064854;27;103612;-72
2022/06/23 00:55:03;;;;;;;10.75;9.75;;;;;;;21.53;97.10;98287.78;5059063;27;105252;-72
2022/06/23 00:57:36;;;;;;;10.63;8.97;;;;;;;21.56;96.36;98287.41;5069964;27;102890;-72
2022/06/23 01:00:10;;;;;;;10.03;9.17;;;;;;;21.52;96.87;98289.63;5063073;27;103381;-72
2022/06/23 01:02:43;;;;;;;8.40;7.70;;;;;;;21.58;96.24;98301.47;5059734;27;104394;-73
2022/06/23 01:05:16;;;;;;;8.95;8.05;;;;;;;21.66;94.99;98287.94;5057810;27;103755;-73
2022/06/23 01:07:52;;;;;;;10.17;9.20;;;;;;;21.65;94.43;98286.25;5061632;27;103112;-73
2022/06/23 01:10:25;;;;;;;13.57;12.13;;;;;;;20.88;98.15;98283.22;5039687;27;105040;-73
2022/06/23 01:13:01;;;;;;;19.42;16.55;;;;;;;20.20;100.00;98278.88;5065713;27;103930;-72
2022/06/23 01:15:35;;;;;;;18.25;16.17;;;;;;;20.15;100.00;98286.59;5058292;27;104420;-73
2022/06/23 01:18:12;;;;;;;16.88;15.27;;;;;;;20.13;100.00;98280.59;5067597;27;102897;-72
2022/06/23 01:20:49;;;;;;;15.88;14.20;;;;;;;20.16;100.00;98282.91;5065940;27;104057;-72
2022/06/23 01:23:31;;;;;;;11.55;10.45;;;;;;;20.61;100.00;98308.84;5060083;27;103139;-72
2022/06/23 01:26:21;;;;;;;12.93;11.73;;;;;;;20.91;100.00;98316.91;5068397;27;102739;-72
2022/06/23 01:28:57;;;;;;;10.87;9.87;;;;;;;21.03;99.13;98318.94;5070540;27;102860;-73
2022/06/23 01:31:29;;;;;;;13.10;11.73;;;;;;;20.92;97.53;98318.56;5078033;27;103137;-72
2022/06/23 01:34:03;;;;;;;12.10;10.80;;;;;;;20.73;97.17;98326.16;5065729;27;104780;-72
2022/06/23 01:36:35;;;;;;;7.83;7.17;;;;;;;20.96;96.92;98323.41;5043233;27;102829;-72
2022/06/23 01:39:11;;;;;;;7.93;7.22;;;;;;;21.08;95.30;98329.19;5061812;27;103790;-72
2022/06/23 01:41:47;;;;;;;10.88;9.77;;;;;;;21.07;96.33;98330.16;5057213;27;103016;-72
2022/06/23 01:44:39;;;;;;;9.27;8.38;;;;;;;21.16;95.61;98346.03;5042382;27;103152;-73
2022/06/23 01:47:18;;;;;;;11.63;9.80;;;;;;;21.14;95.04;98337.31;5045766;27;102727;-73
2022/06/23 01:49:49;;;;;;;14.48;13.02;;;;;;;20.65;97.32;98326.25;5040267;27;102667;-72
2022/06/23 01:52:22;;;;;;;14.60;13.30;;;;;;;20.42;100.00;98325.47;5055057;27;103313;-72
2022/06/23 01:54:57;;;;;;;14.50;13.10;;;;;;;20.48;100.00;98329.28;5061692;27;103393;-72
2022/06/23 01:57:31;;;;;;;12.77;11.40;;;;;;;20.69;99.54;98324.00;5061576;27;103837;-72
2022/06/23 02:00:10;;;;;;;9.20;8.30;;;;;;;20.86;98.65;98322.81;5064745;27;102972;-72
2022/06/23 02:02:55;;;;;;;7.35;6.70;;;;;;;21.00;95.99;98335.41;5058458;27;105359;-73
2022/06/23 02:05:33;;;;;;;8.27;7.57;;;;;;;21.05;95.32;98327.63;5065228;27;102959;-73
2022/06/23 02:08:08;;;;;;;10.15;9.05;;;;;;;20.90;94.37;98329.50;5070125;27;102932;-73
2022/06/23 02:10:44;;;;;;;13.47;12.17;;;;;;;20.40;97.91;98318.63;5064445;27;103569;-73
2022/06/23 02:13:21;;;;;;;13.98;12.05;;;;;;;20.19;100.00;98314.72;5063014;27;103330;-72
2022/06/23 02:15:59;;;;;;;11.52;9.95;;;;;;;20.51;99.37;98318.19;5062519;27;103225;-73
2022/06/23 02:18:33;;;;;;;7.10;6.55;;;;;;;20.71;96.81;98320.16;5062003;27;103519;-72
2022/06/23 02:21:15;;;;;;;9.43;8.43;;;;;;;20.85;95.13;98323.88;5063720;27;102663;-73
2022/06/23 02:23:49;;;;;;;8.27;7.30;;;;;;;20.86;94.58;98333.56;5059017;27;103932;-73
2022/06/23 02:26:23;;;;;;;12.90;11.10;;;;;;;20.68;93.20;98327.72;5071732;27;103211;-73
2022/06/23 02:29:00;;;;;;;12.03;10.47;;;;;;;20.53;95.00;98326.88;5062295;27;104021;-71
2022/06/23 02:31:39;;;;;;;8.90;8.00;;;;;;;20.65;94.61;98338.84;5041122;27;104095;-72
2022/06/23 02:34:15;;;;;;;8.47;7.60;;;;;;;20.74;92.73;98329.69;5064639;27;103484;-74
2022/06/23 02:37:28;;;;;;;7.53;6.90;;;;;;;20.77;91.90;98323.97;5065445;27;104223;-73
2022/06/23 02:39:59;;;;;;;6.00;5.50;;;;;;;20.78;91.14;98326.44;5062366;27;104082;-73
2022/06/23 02:42:33;;;;;;;6.43;5.82;;;;;;;20.83;90.05;98336.63;5066604;27;102774;-72
2022/06/23 02:45:41;;;;;;;7.07;6.37;;;;;;;20.66;91.42;98340.50;5063468;27;103423;-72
2022/06/23 02:48:25;;;;;;;7.67;6.93;;;;;;;20.80;92.11;98339.66;5064166;27;103338;-71
2022/06/23 02:51:11;;;;;;;11.05;9.75;;;;;;;20.57;92.85;98333.56;5067564;27;103642;-72
2022/06/23 02:54:07;;;;;;;13.52;12.20;;;;;;;19.93;96.72;98343.75;5069843;27;103276;-71
2022/06/23 02:56:50;;;;;;;9.57;8.60;;;;;;;20.37;95.85;98335.06;5058160;27;103457;-71
2022/06/23 02:59:29;;;;;;;13.13;11.30;;;;;;;19.96;96.88;98343.41;5056300;27;103131;-71
2022/06/23 03:02:05;;;;;;;16.73;12.55;;;;;;;19.50;98.96;98350.56;5059741;27;103357;-72
2022/06/23 03:04:41;;;;;;;14.82;12.80;;;;;;;19.09;100.00;98355.22;5062676;27;103974;-72
2022/06/23 03:07:18;;;;;;;14.77;12.30;;;;;;;18.99;100.00;98351.91;5062901;27;104620;-72
2022/06/23 03:09:53;;;;;;;9.27;8.50;;;;;;;19.42;100.00;98350.59;5065189;27;103157;-72
2022/06/23 03:12:28;;;;;;;8.25;7.47;;;;;;;19.89;100.00;98355.84;5069963;27;103180;-74
2022/06/23 03:15:01;;;;;;;5.53;5.03;;;;;;;20.15;98.82;98355.50;5065424;27;102860;-74
2022/06/23 03:17:46;;;;;;;9.07;8.18;;;;;;;20.26;97.97;98352.44;5065935;27;103169;-75
2022/06/23 03:20:32;;;;;;;5.85;5.35;;;;;;;20.41;95.87;98365.88;5068348;27;103295;-74
2022/06/23 03:23:09;;;;;;;6.63;5.95;;;;;;;20.46;94.17;98352.78;5062782;27;102938;-74
2022/06/23 03:25:43;;;;;;;8.70;7.43;;;;;;;20.38;95.39;98355.53;5061448;27;102648;-74
2022/06/23 03:28:16;;;;;;;7.78;6.90;;;;;;;20.44;94.64;98354.78;5061383;27;103293;-74
2022/06/23 03:30:49;;;;;;;6.30;5.70;;;;;;;20.47;93.40;98355.25;5054286;27;103092;-74
2022/06/23 03:33:23;;;;;;;4.72;4.32;;;;;;;20.54;91.28;98368.78;5064330;27;102724;-74
2022/06/23 03:35:56;;;;;;;5.68;4.68;;;;;;;20.61;91.15;98372.41;5044590;27;104070;-74
2022/06/23 03:44:13;;;;;;;8.05;6.75;;;;;;;20.56;92.57;98381.00;5045860;27;102940;-75
2022/06/23 03:46:47;;;;;;;5.25;4.60;;;;;;;20.69;91.74;98385.75;5059548;27;103011;-73
2022/06/23 03:49:23;;;;;;;6.80;5.57;;;;;;;20.64;91.43;98382.78;5058716;27;103341;-74
2022/06/23 03:51:57;;;;;;;5.50;5.00;;;;;;;20.70;91.64;98385.56;5060201;27;103198;-74
2022/06/23 03:54:29;;;;;;;6.85;5.43;;;;;;;20.73;91.39;98385.22;5060782;27;103221;-74
2022/06/23 03:57:03;;;;;;;5.03;4.43;;;;;;;20.77;91.16;98388.38;5069482;27;104190;-74
2022/06/23 03:59:37;;;;;;;8.97;6.97;;;;;;;20.26;94.37;98383.78;5044721;27;103546;-75
2022/06/23 04:02:13;;;;;;;11.30;6.80;;;;;;;19.82;99.57;98387.03;5059458;27;103376;-74
2022/06/23 04:04:49;;;;;;;9.40;7.25;;;;;;;19.60;100.00;98383.31;5047309;27;102812;-74
2022/06/23 04:07:36;;;;;;;9.52;7.88;;;;;;;19.49;100.00;98390.91;5063240;27;103592;-76
2022/06/23 04:10:08;;;;;;;10.30;7.25;;;;;;;19.59;100.00;98383.50;5060463;27;103221;-75
2022/06/23 04:13:02;;;;;;;11.33;7.70;;;;;;;19.74;100.00;98388.94;5059274;27;104459;-75
2022/06/23 04:15:34;;;;;;;7.38;6.45;;;;;;;19.98;99.75;98397.69;5061665;27;102696;-74
2022/06/23 04:18:09;;;;;;;4.47;3.95;;;;;;;20.30;96.93;98403.84;5064691;27;102899;-75
2022/06/23 04:20:40;;;;;;;4.95;4.45;;;;;;;20.48;94.92;98393.66;5060769;27;103171;-74
2022/06/23 04:23:21;;;;;;;5.35;3.90;;;;;;;20.57;93.47;98393.44;5059519;27;103162;-74
2022/06/23 04:25:57;;;;;;;4.43;4.03;;;;;;;20.66;92.43;98391.50;5057629;27;102573;-75
2022/06/23 04:28:27;;;;;;;5.00;4.20;;;;;;;20.75;91.84;98390.38;5059647;27;102555;-75
2022/06/23 04:30:57;;;;;;;4.93;4.10;;;;;;;20.81;90.89;98384.28;5045880;27;103640;-75
2022/06/23 04:33:28;;;;;;;4.00;3.60;;;;;;;20.83;90.33;98393.00;5066383;27;103707;-74
2022/06/23 04:35:59;;;;;;;5.57;5.03;;;;;;;20.86;90.84;98391.78;5058014;27;104642;-76
2022/06/23 04:38:34;;;;;;;7.17;4.83;;;;;;;20.87;90.11;98391.63;5063781;27;104891;-76
2022/06/23 04:41:11;;;;;;;4.30;3.80;;;;;;;20.90;90.17;98388.56;5060290;27;103981;-76
2022/06/23 04:43:43;;;;;;;4.00;3.70;;;;;;;20.94;89.82;98400.59;5073921;27;103280;-76
2022/06/23 04:46:14;;;;;;;6.78;5.05;;;;;;;20.94;90.14;98394.41;5060031;27;103021;-76
2022/06/23 04:48:49;;;;;;;4.05;3.65;;;;;;;21.00;90.01;98399.88;5043026;27;103997;-77
2022/06/23 04:51:28;;;;;;;6.75;5.47;;;;;;;20.80;92.83;98393.34;5060943;27;103620;-76
2022/06/23 04:54:03;;;;;;;13.18;7.93;;;;;;;20.10;98.27;98396.25;5066103;27;103297;-76
2022/06/23 04:56:40;;;;;;;7.07;6.38;;;;;;;20.47;97.76;98394.66;5050214;27;102971;-77
2022/06/23 04:59:24;;;;;;;6.27;4.87;;;;;;;20.72;96.07;98396.97;5062170;27;102999;-76
2022/06/23 05:01:55;;;;;;;6.13;5.30;;;;;;;20.93;94.96;98398.94;5062494;27;103936;-76
2022/06/23 05:04:28;;;;;;;4.45;4.05;;;;;;;21.05;93.25;98402.84;5064005;27;103355;-76
2022/06/23 05:07:01;;;;;;;4.55;3.88;;;;;;;21.18;92.66;98408.44;5063166;27;102876;-76
2022/06/23 05:09:35;;;;;;;5.50;4.90;;;;;;;21.32;91.96;98410.31;5070409;27;104016;-77
2022/06/23 05:12:16;;;;;;;4.80;4.32;;;;;;;21.41;91.62;98399.47;5045677;27;104091;-76
2022/06/23 05:14:50;;;;;;;4.53;4.13;;;;;;;21.52;90.58;98409.72;5059504;27;103694;-76
2022/06/23 05:17:25;;;;;;;5.25;4.65;;;;;;;21.62;90.15;98410.25;5067092;27;103259;-76
2022/06/23 05:19:57;;;;;;;5.57;4.70;;;;;;;21.71;90.22;98406.47;5062550;27;103159;-76
2022/06/23 05:22:32;;;;;;;8.52;6.07;;;;;;;21.77;90.11;98397.66;5064581;27;103198;-76
2022/06/23 05:25:20;;;;;;;7.38;5.65;;;;;;;21.78;90.95;98405.50;5059634;27;103143;-76
2022/06/23 05:27:50;;;;;;;5.95;5.30;;;;;;;21.88;90.53;98410.63;5069076;27;102948;-76
2022/06/23 05:30:26;;;;;;;6.00;5.43;;;;;;;21.98;90.60;98411.16;5064269;27;103497;-76
2022/06/23 05:32:58;;;;;;;6.80;6.10;;;;;;;22.01;91.08;98404.59;5059617;27;103203;-75
2022/06/23 05:35:33;;;;;;;10.10;8.17;;;;;;;21.98;92.15;98407.66;5062359;27;103165;-75
2022/06/23 05:38:05;;;;;;;8.57;7.35;;;;;;;22.10;91.71;98404.25;5062359;27;102951;-76
2022/06/23 05:40:39;;;;;;;7.37;6.57;;;;;;;22.27;91.68;98400.31;5070188;27;103863;-75
2022/06/23 05:43:12;;;;;;;10.10;8.25;;;;;;;22.26;92.05;98409.41;5066681;27;104344;-78
2022/06/23 05:45:44;;;;;;;6.72;6.03;;;;;;;22.44;91.43;98401.72;5066439;27;104567;-77
2022/06/23 05:48:17;;;;;;;7.75;7.05;;;;;;;22.52;91.35;98406.97;5071272;27;102617;-78
2022/06/23 05:50:48;;;;;;;10.07;7.65;;;;;;;22.52;91.73;98404.28;5065701;27;102563;-78
2022/06/23 05:53:23;;;;;;;10.82;9.10;;;;;;;22.65;92.24;98408.16;5046029;27;103782;-78
2022/06/23 05:55:58;;;;;;;12.05;9.90;;;;;;;22.72;91.73;98412.56;5071172;27;103177;-76
2022/06/23 05:58:32;;;;;;;15.50;12.03;;;;;;;22.75;91.77;98405.94;5066792;27;102870;-77
2022/06/23 06:01:09;;;;;;;10.40;9.30;;;;;;;22.82;92.89;98398.78;5065796;27;103897;-77
2022/06/23 06:03:43;;;;;;;11.38;10.30;;;;;;;22.99;92.64;98402.81;5065853;27;103185;-78
2022/06/23 06:06:12;;;;;;;15.80;13.75;;;;;;;22.81;91.87;98407.88;5070829;27;103128;-78
2022/06/23 06:11:31;;;;;;;10.52;9.63;;;;;;;22.98;93.77;98401.16;5055716;27;102793;-76
2022/06/23 06:14:00;;;;;;;12.68;11.38;;;;;;;23.15;92.42;98410.59;5066836;27;103139;-77
2022/06/23 06:16:28;;;;;;;15.48;13.88;;;;;;;22.76;95.69;98410.31;5065842;27;103223;-77
2022/06/23 06:18:57;;;;;;;13.70;12.03;;;;;;;23.08;93.31;98407.03;5066897;27;102771;-77
2022/06/23 06:21:26;;;;;;;15.03;13.43;;;;;;;22.91;92.06;98408.34;5068114;27;103477;-78
2022/06/23 06:24:00;;;;;;;14.52;13.02;;;;;;;22.87;94.81;98417.88;5063166;27;103297;-77
2022/06/23 06:26:35;;;;;;;14.13;12.73;;;;;;;22.81;92.89;98413.25;5065619;27;103122;-77
2022/06/23 06:29:14;;;;;;;13.37;11.80;;;;;;;23.18;91.89;98418.31;5069885;27;103141;-78
2022/06/23 06:31:46;;;;;;;13.13;11.55;;;;;;;23.26;92.13;98409.22;5067637;27;103364;-75
2022/06/23 06:34:24;;;;;;;11.90;10.30;;;;;;;23.49;90.22;98415.19;5070810;27;103908;-77
2022/06/23 06:36:53;;;;;;;11.02;9.32;;;;;;;23.24;91.42;98411.28;5062843;27;103270;-78
2022/06/23 06:39:26;;;;;;;13.38;11.95;;;;;;;23.43;90.92;98413.28;5051326;27;102880;-77
2022/06/23 06:42:04;;;;;;;14.95;12.68;;;;;;;22.94;93.21;98418.72;5048864;27;102759;-77
2022/06/23 06:44:34;;;;;;;13.68;10.45;;;;;;;23.44;91.00;98426.56;5066006;27;104218;-77
2022/06/23 06:47:05;;;;;;;10.68;9.05;;;;;;;23.85;89.11;98428.44;5066773;27;103755;-78
2022/06/23 06:49:35;;;;;;;15.98;12.40;;;;;;;23.50;89.14;98433.84;5069235;27;102953;-77
2022/06/23 06:52:03;;;;;;;18.42;13.50;;;;;;;22.91;94.87;98441.50;5062441;27;103247;-77
2022/06/23 06:54:41;;;;;;;16.85;12.02;;;;;;;23.44;91.35;98437.34;5060733;27;104018;-79
2022/06/23 06:57:17;;;;;;;15.57;11.10;;;;;;;23.66;87.73;98447.00;5062826;27;103292;-77
2022/06/23 06:59:53;;;;;;;12.40;10.43;;;;;;;23.71;87.85;98434.81;5054580;27;102766;-77
2022/06/23 07:02:25;;;;;;;11.35;8.82;;;;;;;23.78;87.01;98439.19;5060696;27;102709;-76
2022/06/23 07:04:58;;;;;;;12.30;8.53;;;;;;;23.86;84.84;98436.31;5063085;27;103209;-77
2022/06/23 07:07:33;;;;;;;10.65;8.00;;;;;;;24.15;84.03;98433.34;5070705;27;104212;-75
2022/06/23 07:10:06;;;;;;;13.43;7.63;;;;;;;24.15;84.44;98433.34;5046618;27;102694;-78
2022/06/23 07:12:48;;;;;;;10.13;7.37;;;;;;;24.41;83.77;98434.44;5065284;27;104122;-76
2022/06/23 07:15:25;;;;;;;8.63;6.95;;;;;;;24.22;84.53;98430.69;5062001;27;103216;-76
2022/06/23 07:17:57;;;;;;;13.97;7.00;;;;;;;23.92;84.31;98434.66;5062932;27;103117;-77
2022/06/23 07:20:43;;;;;;;8.65;6.72;;;;;;;24.31;82.03;98429.44;5066442;27;102972;-77
2022/06/23 07:23:15;;;;;;;12.02;7.07;;;;;;;24.40;82.05;98439.00;5067722;27;102621;-76
2022/06/23 07:25:52;;;;;;;9.07;5.53;;;;;;;24.68;79.91;98425.34;5061936;27;103283;-76
2022/06/23 07:28:31;;;;;;;10.00;5.67;;;;;;;24.89;79.65;98432.44;5046362;27;103237;-77
2022/06/23 07:31:05;;;;;;;10.13;5.68;;;;;;;24.95;78.21;98424.34;5065376;27;103003;-76
2022/06/23 07:33:41;;;;;;;6.30;4.53;;;;;;;25.52;75.41;98420.94;5055187;27;104013;-76
2022/06/23 07:36:18;;;;;;;7.60;4.63;;;;;;;25.73;74.40;98417.97;5060819;27;103034;-77
2022/06/23 07:38:51;;;;;;;10.13;5.07;;;;;;;25.12;74.25;98411.25;5043566;27;103288;-77
2022/06/23 07:41:24;;;;;;;8.33;4.70;;;;;;;25.66;74.51;98419.03;5062616;27;103119;-76
2022/06/23 07:44:01;;;;;;;10.35;4.63;;;;;;;25.79;73.11;98425.25;5051490;27;102814;-76
2022/06/23 07:46:29;;;;;;;8.57;3.97;;;;;;;26.19;70.45;98420.47;5042194;27;104122;-76
2022/06/23 07:48:58;;;;;;;7.47;4.30;;;;;;;26.77;70.81;98413.03;5061107;27;103525;-76
2022/06/23 07:51:26;;;;;;;5.40;3.45;;;;;;;26.62;69.03;98409.81;5065547;27;102899;-76
2022/06/23 07:53:56;;;;;;;7.03;3.80;;;;;;;27.06;69.90;98406.13;5050334;27;103071;-76
2022/06/23 07:56:29;;;;;;;9.13;4.35;;;;;;;26.80;68.76;98407.19;5065420;27;103166;-76
2022/06/23 07:59:06;;;;;;;8.93;4.60;;;;;;;26.67;69.97;98403.72;5066027;27;103122;-76
2022/06/23 08:01:41;;;;;;;10.20;4.43;;;;;;;26.75;69.19;98398.84;5064907;27;102756;-76
2022/06/23 08:04:15;;;;;;;3.92;3.40;;;;;;;27.58;67.17;98391.22;5061279;27;103246;-76
2022/06/23 08:06:45;;;;;;;8.77;4.45;;;;;;;27.46;65.76;98379.47;5045031;27;103520;-77
2022/06/23 08:09:19;;;;;;;8.10;4.38;;;;;;;27.27;66.39;98392.16;5043004;27;103320;-77
2022/06/23 08:14:41;;;;;;;8.20;4.07;;;;;;;28.04;60.95;98380.63;5048592;27;103193;-76
2022/06/23 08:17:13;;;;;;;9.30;4.50;;;;;;;27.94;63.98;98380.31;5061634;27;103379;-77
2022/06/23 08:19:47;;;;;;;9.95;4.32;;;;;;;27.98;63.33;98380.72;5063889;27;103100;-77
2022/06/23 08:22:20;;;;;;;7.15;4.05;;;;;;;28.51;62.02;98378.09;5064359;27;102648;-78
2022/06/23 08:24:52;;;;;;;9.43;4.40;;;;;;;28.97;60.25;98377.38;5069292;27;104252;-79
2022/06/23 08:27:43;;;;;;;5.93;3.35;;;;;;;28.91;58.77;98384.56;5059312;27;103188;-76
2022/06/23 08:30:15;;;;;;;7.87;4.00;;;;;;;29.79;58.03;98377.03;5062526;27;103156;-76
2022/06/23 08:32:47;;;;;;;8.23;4.13;;;;;;;29.38;60.47;98373.69;5048935;27;103202;-77
2022/06/23 08:35:22;;;;;;;7.63;4.00;;;;;;;30.00;59.12;98372.88;5068581;27;102748;-78
2022/06/23 08:37:56;;;;;;;7.80;3.83;;;;;;;30.22;56.82;98364.81;5065973;27;103338;-77
2022/06/23 08:40:34;;;;;;;7.43;3.50;;;;;;;30.51;54.69;98358.31;5061038;27;103152;-76
2022/06/23 08:43:15;;;;;;;8.27;3.77;;;;;;;29.67;56.52;98357.19;5045761;27;102591;-76
2022/06/23 08:45:53;;;;;;;6.15;3.22;;;;;;;30.46;57.86;98350.03;5071851;27;102597;-77
2022/06/23 08:48:26;;;;;;;6.03;3.10;;;;;;;31.24;55.13;98347.22;5047175;27;104077;-77
2022/06/23 08:51:01;;;;;;;11.27;4.10;;;;;;;30.62;53.92;98351.13;5068592;27;103129;-77
2022/06/23 08:53:38;;;;;;;9.02;3.95;;;;;;;30.98;53.23;98348.75;5046476;27;102594;-77
2022/06/23 08:56:12;;;;;;;5.67;3.10;;;;;;;31.79;51.23;98349.03;5048001;27;103187;-78
2022/06/23 08:58:46;;;;;;;7.90;3.80;;;;;;;31.40;52.33;98345.53;5069452;27;103041;-75
2022/06/23 09:01:21;;;;;;;8.30;3.97;;;;;;;31.55;53.51;98343.84;5069551;27;103235;-80
2022/06/23 09:03:57;;;;;;;8.43;4.07;;;;;;;31.90;50.98;98339.88;5049753;27;102563;-81
2022/06/23 09:06:35;;;;;;;8.18;3.95;;;;;;;31.53;52.30;98329.63;5072222;27;104195;-81
2022/06/23 09:09:27;;;;;;;7.68;4.00;;;;;;;32.07;51.54;98329.72;5060611;27;103178;-80
2022/06/23 09:12:06;;;;;;;7.78;3.47;;;;;;;32.11;50.04;98330.88;5060272;27;103186;-83
2022/06/23 09:15:24;;;;;;;6.18;3.55;;;;;;;32.17;50.88;98329.03;5044201;27;103884;-78
2022/06/23 09:18:18;;;;;;;6.33;3.27;;;;;;;32.66;47.72;98316.91;5068761;27;104373;-78
2022/06/23 09:21:25;;;;;;;6.83;3.23;;;;;;;32.50;47.49;98324.16;5065606;27;103955;-78
2022/06/23 09:24:29;;;;;;;7.00;3.30;;;;;;;32.70;47.75;98315.31;5064302;27;103182;-77
2022/06/23 09:27:00;;;;;;;8.50;3.40;;;;;;;32.92;48.23;98316.03;5068049;27;102735;-77
2022/06/23 09:29:52;;;;;;;9.48;3.45;;;;;;;32.62;47.60;98322.06;5058987;27;103968;-77
2022/06/23 09:32:31;;;;;;;9.18;3.45;;;;;;;33.55;47.21;98309.53;5051756;27;103387;-77
2022/06/23 09:35:25;;;;;;;6.55;3.08;;;;;;;32.90;46.03;98311.91;5067207;27;103179;-77
2022/06/23 09:38:17;;;;;;;7.85;3.30;;;;;;;33.74;46.93;98309.94;5065603;27;102702;-78
2022/06/23 09:40:58;;;;;;;5.40;2.95;;;;;;;34.08;45.50;98308.38;5070840;27;102859;-77
2022/06/23 09:43:49;;;;;;;7.43;3.27;;;;;;;33.92;43.37;98303.94;5061240;27;103344;-78
2022/06/23 09:47:01;;;;;;;8.77;3.33;;;;;;;33.06;47.82;98303.56;5054260;27;102996;-77
2022/06/23 09:50:03;;;;;;;6.17;3.30;;;;;;;33.74;46.08;98297.03;5073521;27;102887;-77
2022/06/23 09:53:06;;;;;;;7.50;3.30;;;;;;;33.45;44.82;98290.34;5057335;27;104302;-77
2022/06/23 09:55:53;;;;;;;7.13;3.37;;;;;;;33.18;45.65;98295.16;5069874;27;104166;-77
2022/06/23 09:58:53;;;;;;;8.83;3.67;;;;;;;32.52;45.00;98294.63;5072153;27;103094;-77
2022/06/23 10:01:34;;;;;;;7.38;3.30;;;;;;;32.48;47.79;98281.72;5005799;27;103037;-78
2022/06/23 10:04:18;;;;;;;9.25;3.92;;;;;;;30.11;50.53;98282.09;5061223;27;103754;-76
2022/06/23 10:07:05;;;;;;;9.82;3.50;;;;;;;29.97;50.52;98275.31;5046383;27;104489;-78
2022/06/23 10:09:46;;;;;;;7.95;3.38;;;;;;;32.06;47.79;98276.16;5063387;27;103135;-77
2022/06/23 10:12:43;;;;;;;7.25;3.58;;;;;;;31.77;51.62;98285.69;5067698;27;102714;-77
2022/06/23 10:15:28;;;;;;;7.85;3.88;;;;;;;32.31;49.77;98273.66;5066878;27;103500;-77
2022/06/23 10:18:18;;;;;;;8.85;3.40;;;;;;;32.98;47.57;98273.09;5068544;27;103533;-77
2022/06/23 10:21:00;;;;;;;6.13;2.97;;;;;;;34.10;45.80;98269.75;5067312;27;103391;-77
2022/06/23 10:23:56;;;;;;;8.20;3.40;;;;;;;33.41;48.66;98274.69;5045038;27;102828;-77
2022/06/23 10:26:41;;;;;;;6.68;3.15;;;;;;;33.68;47.72;98276.22;5056374;27;103670;-77
2022/06/23 10:29:36;;;;;;;7.32;2.95;;;;;;;33.61;46.30;98278.38;5063659;27;103203;-77
2022/06/23 10:32:25;;;;;;;9.33;3.60;;;;;;;31.93;45.07;98268.38;5037372;27;103106;-77
2022/06/23 10:35:09;;;;;;;7.13;3.65;;;;;;;33.14;45.65;98263.91;5060211;27;102486;-78
2022/06/23 10:38:07;;;;;;;9.23;3.65;;;;;;;33.37;45.02;98260.75;5067983;27;103233;-78
2022/06/23 10:41:09;;;;;;;7.43;3.50;;;;;;;34.27;45.85;98251.97;5062431;27;103254;-77
2022/06/23 10:43:56;;;;;;;6.85;3.10;;;;;;;34.35;44.77;98254.16;5047821;27;103650;-77
2022/06/23 10:46:31;;;;;;;9.93;4.13;;;;;;;32.03;45.92;98249.34;5063719;27;103468;-79
2022/06/23 10:49:29;;;;;;;7.80;3.65;;;;;;;33.24;46.29;98255.75;5049642;27;102914;-78
2022/06/23 10:52:32;;;;;;;10.47;3.77;;;;;;;33.18;46.06;98256.84;5067357;27;103966;-78
2022/06/23 10:55:14;;;;;;;10.48;3.88;;;;;;;32.97;45.24;98249.56;5043587;27;103430;-78
2022/06/23 10:58:13;;;;;;;6.93;3.83;;;;;;;33.93;44.69;98244.50;5061441;27;103579;-78
2022/06/23 11:00:53;;;;;;;7.83;3.30;;;;;;;33.89;42.99;98235.16;5060689;27;102763;-79
2022/06/23 11:03:45;;;;;;;6.82;3.47;;;;;;;34.02;44.86;98224.53;5063923;27;103346;-78
2022/06/23 11:06:37;;;;;;;9.20;4.07;;;;;;;33.23;45.09;98229.47;5046905;27;103152;-78
2022/06/23 11:09:25;;;;;;;8.50;4.07;;;;;;;30.29;50.38;98224.66;5060128;27;102782;-78
2022/06/23 11:12:03;;;;;;;6.95;3.55;;;;;;;32.78;45.78;98215.53;5066180;27;103127;-78
2022/06/23 11:14:51;;;;;;;5.57;3.60;;;;;;;32.40;47.43;98203.78;5063266;27;103241;-78
2022/06/23 11:17:34;;;;;;;7.03;3.80;;;;;;;33.57;44.81;98211.56;5061139;27;103139;-78
2022/06/23 11:20:17;;;;;;;7.68;4.38;;;;;;;31.55;46.64;98207.34;5067840;27;102854;-78
2022/06/23 11:22:51;;;;;;;8.13;4.05;;;;;;;32.75;46.35;98199.66;5066685;27;103096;-77
2022/06/23 11:25:40;;;;;;;4.97;3.43;;;;;;;34.18;43.65;98198.78;5061467;27;103335;-77
2022/06/23 11:28:18;;;;;;;9.85;3.72;;;;;;;32.82;43.75;98194.75;5065195;27;103420;-78
2022/06/23 11:31:05;;;;;;;6.17;3.27;;;;;;;34.08;43.59;98198.78;5064382;27;102861;-79
2022/06/23 11:33:47;;;;;;;8.00;3.83;;;;;;;34.37;42.52;98188.06;5051672;27;104102;-78
2022/06/23 11:36:28;;;;;;;7.35;3.92;;;;;;;33.99;42.83;98194.09;5068071;27;103478;-79
2022/06/23 11:39:11;;;;;;;6.30;3.20;;;;;;;34.41;42.84;98197.41;5062501;27;103471;-78
2022/06/23 11:42:09;;;;;;;7.07;3.77;;;;;;;33.08;42.42;98182.88;5061857;27;102496;-78
2022/06/23 11:44:49;;;;;;;7.32;3.92;;;;;;;32.68;42.72;98189.78;5070549;27;102929;-79
2022/06/23 11:47:28;;;;;;;5.53;3.53;;;;;;;33.50;43.43;98180.84;5061955;27;104205;-78
2022/06/23 11:50:09;;;;;;;9.82;4.00;;;;;;;34.30;42.05;98174.63;5068126;27;103069;-79
2022/06/23 11:52:49;;;;;;;9.00;3.45;;;;;;;34.29;41.99;98169.44;5064758;27;102908;-78
2022/06/23 11:55:26;;;;;;;7.80;3.50;;;;;;;34.94;41.37;98185.78;5068353;27;102984;-82
2022/06/23 11:58:26;;;;;;;7.15;3.50;;;;;;;35.18;40.70;98171.44;5045309;27;104511;-78
2022/06/23 12:01:06;;;;;;;8.52;3.70;;;;;;;34.17;40.14;98169.72;5047014;27;103325;-77
2022/06/23 12:03:57;;;;;;;8.48;4.07;;;;;;;32.78;43.09;98167.16;5061517;27;102651;-78
2022/06/23 12:06:37;;;;;;;10.67;4.30;;;;;;;32.05;44.65;98157.91;5049077;27;103951;-78
2022/06/23 12:09:17;;;;;;;7.97;4.03;;;;;;;32.33;43.76;98161.38;5068646;27;104178;-81
2022/06/23 12:11:48;;;;;;;9.07;3.70;;;;;;;31.93;43.32;98159.13;5058830;27;103456;-82
2022/06/23 12:14:18;;;;;;;6.60;3.53;;;;;;;33.64;42.09;98159.25;5065131;27;105064;-82
2022/06/23 12:16:53;;;;;;;8.45;3.70;;;;;;;34.54;40.65;98163.91;5063120;27;102944;-82
2022/06/23 12:19:31;;;;;;;10.38;4.47;;;;;;;35.17;39.98;98140.44;5067102;27;103228;-83
2022/06/23 12:22:08;;;;;;;7.93;3.70;;;;;;;33.98;42.36;98146.69;5063925;27;103115;-81